sensor_id;sensor_type;location;lat;lon;timestamp;P1;durP1;ratioP1;P2;durP2;ratioP2
80344;SDS011;69658;44.498;0.166;2023-07-22T00:05:10;2.00;;;1.57;;
80344;SDS011;69658;44.498;0.166;2023-07-22T00:10:42;2.20;;;1.60;;
80344;SDS011;69658;44.498;0.166;2023-07-22T00:16:15;0.90;;;0.90;;
80344;SDS011;69658;44.498;0.166;2023-07-22T00:21:48;2.87;;;1.30;;
80344;SDS011;69658;44.498;0.166;2023-07-22T00:27:20;5.87;;;1.93;;
80344;SDS011;69658;44.498;0.166;2023-07-22T00:32:53;3.37;;;1.20;;
80344;SDS011;69658;44.498;0.166;2023-07-22T00:38:27;4.43;;;1.80;;
80344;SDS011;69658;44.498;0.166;2023-07-22T00:43:59;4.20;;;1.93;;
80344;SDS011;69658;44.498;0.166;2023-07-22T00:49:31;2.43;;;1.63;;
80344;SDS011;69658;44.498;0.166;2023-07-22T00:55:04;1.93;;;1.40;;
80344;SDS011;69658;44.498;0.166;2023-07-22T01:00:36;1.97;;;1.20;;
80344;SDS011;69658;44.498;0.166;2023-07-22T01:06:10;3.33;;;1.57;;
80344;SDS011;69658;44.498;0.166;2023-07-22T01:11:44;2.03;;;1.53;;
80344;SDS011;69658;44.498;0.166;2023-07-22T01:17:16;3.33;;;1.50;;
80344;SDS011;69658;44.498;0.166;2023-07-22T01:22:50;4.40;;;1.67;;
80344;SDS011;69658;44.498;0.166;2023-07-22T01:28:21;6.07;;;1.50;;
80344;SDS011;69658;44.498;0.166;2023-07-22T01:33:53;3.00;;;1.90;;
80344;SDS011;69658;44.498;0.166;2023-07-22T01:39:25;2.53;;;1.70;;
80344;SDS011;69658;44.498;0.166;2023-07-22T01:44:59;9.87;;;2.33;;
80344;SDS011;69658;44.498;0.166;2023-07-22T01:50:31;2.23;;;1.60;;
80344;SDS011;69658;44.498;0.166;2023-07-22T01:56:06;2.77;;;1.83;;
80344;SDS011;69658;44.498;0.166;2023-07-22T02:01:36;3.10;;;1.43;;
80344;SDS011;69658;44.498;0.166;2023-07-22T02:07:09;2.27;;;1.57;;
80344;SDS011;69658;44.498;0.166;2023-07-22T02:12:43;2.97;;;1.50;;
80344;SDS011;69658;44.498;0.166;2023-07-22T02:18:15;3.37;;;1.83;;
80344;SDS011;69658;44.498;0.166;2023-07-22T02:23:47;1.63;;;1.47;;
80344;SDS011;69658;44.498;0.166;2023-07-22T02:29:21;2.40;;;1.53;;
80344;SDS011;69658;44.498;0.166;2023-07-22T02:34:53;4.67;;;1.80;;
80344;SDS011;69658;44.498;0.166;2023-07-22T02:40:26;4.27;;;1.80;;
80344;SDS011;69658;44.498;0.166;2023-07-22T02:45:59;1.93;;;1.70;;
80344;SDS011;69658;44.498;0.166;2023-07-22T02:51:31;3.77;;;2.30;;
80344;SDS011;69658;44.498;0.166;2023-07-22T02:57:04;2.90;;;1.73;;
80344;SDS011;69658;44.498;0.166;2023-07-22T03:02:36;2.53;;;1.73;;
80344;SDS011;69658;44.498;0.166;2023-07-22T03:08:08;2.13;;;1.40;;
80344;SDS011;69658;44.498;0.166;2023-07-22T03:13:40;3.20;;;2.00;;
80344;SDS011;69658;44.498;0.166;2023-07-22T03:19:13;5.40;;;1.90;;
80344;SDS011;69658;44.498;0.166;2023-07-22T03:24:45;4.97;;;1.83;;
80344;SDS011;69658;44.498;0.166;2023-07-22T03:30:18;2.00;;;1.50;;
80344;SDS011;69658;44.498;0.166;2023-07-22T03:35:51;4.07;;;1.80;;
80344;SDS011;69658;44.498;0.166;2023-07-22T03:41:24;3.20;;;2.10;;
80344;SDS011;69658;44.498;0.166;2023-07-22T03:46:59;2.80;;;2.03;;
80344;SDS011;69658;44.498;0.166;2023-07-22T03:52:30;5.30;;;1.80;;
80344;SDS011;69658;44.498;0.166;2023-07-22T03:58:03;2.13;;;1.63;;
80344;SDS011;69658;44.498;0.166;2023-07-22T04:03:36;3.03;;;2.07;;
80344;SDS011;69658;44.498;0.166;2023-07-22T04:09:09;4.40;;;2.20;;
80344;SDS011;69658;44.498;0.166;2023-07-22T04:14:42;3.83;;;2.00;;
80344;SDS011;69658;44.498;0.166;2023-07-22T04:20:15;2.60;;;2.00;;
80344;SDS011;69658;44.498;0.166;2023-07-22T04:25:48;2.07;;;1.80;;
80344;SDS011;69658;44.498;0.166;2023-07-22T04:31:21;2.77;;;1.80;;
80344;SDS011;69658;44.498;0.166;2023-07-22T04:36:54;2.93;;;1.93;;
80344;SDS011;69658;44.498;0.166;2023-07-22T04:42:28;5.50;;;2.57;;
80344;SDS011;69658;44.498;0.166;2023-07-22T04:48:02;2.87;;;1.83;;
80344;SDS011;69658;44.498;0.166;2023-07-22T04:53:32;4.30;;;2.63;;
80344;SDS011;69658;44.498;0.166;2023-07-22T04:59:05;7.10;;;2.80;;
80344;SDS011;69658;44.498;0.166;2023-07-22T05:04:37;5.07;;;2.50;;
80344;SDS011;69658;44.498;0.166;2023-07-22T05:10:12;5.50;;;2.70;;
80344;SDS011;69658;44.498;0.166;2023-07-22T05:15:43;4.40;;;2.50;;
80344;SDS011;69658;44.498;0.166;2023-07-22T05:21:16;3.57;;;2.63;;
80344;SDS011;69658;44.498;0.166;2023-07-22T05:26:49;4.47;;;1.93;;
80344;SDS011;69658;44.498;0.166;2023-07-22T05:32:21;4.10;;;1.77;;
80344;SDS011;69658;44.498;0.166;2023-07-22T05:37:54;2.20;;;2.00;;
80344;SDS011;69658;44.498;0.166;2023-07-22T05:43:26;3.27;;;1.83;;
80344;SDS011;69658;44.498;0.166;2023-07-22T05:48:59;2.83;;;1.70;;
80344;SDS011;69658;44.498;0.166;2023-07-22T05:54:32;2.33;;;1.63;;
80344;SDS011;69658;44.498;0.166;2023-07-22T06:00:05;3.77;;;1.97;;
80344;SDS011;69658;44.498;0.166;2023-07-22T06:05:38;2.73;;;1.80;;
80344;SDS011;69658;44.498;0.166;2023-07-22T06:11:11;4.03;;;1.67;;
80344;SDS011;69658;44.498;0.166;2023-07-22T06:16:45;1.83;;;1.60;;
80344;SDS011;69658;44.498;0.166;2023-07-22T06:22:18;3.70;;;1.80;;
80344;SDS011;69658;44.498;0.166;2023-07-22T06:27:52;2.60;;;2.17;;
80344;SDS011;69658;44.498;0.166;2023-07-22T06:33:25;2.47;;;1.77;;
80344;SDS011;69658;44.498;0.166;2023-07-22T06:38:57;3.80;;;2.37;;
80344;SDS011;69658;44.498;0.166;2023-07-22T06:44:28;4.00;;;1.87;;
80344;SDS011;69658;44.498;0.166;2023-07-22T06:50:02;2.73;;;1.80;;
80344;SDS011;69658;44.498;0.166;2023-07-22T06:55:34;1.83;;;1.70;;
80344;SDS011;69658;44.498;0.166;2023-07-22T07:01:07;2.53;;;1.90;;
80344;SDS011;69658;44.498;0.166;2023-07-22T07:06:39;2.50;;;1.77;;
80344;SDS011;69658;44.498;0.166;2023-07-22T07:12:12;1.70;;;1.60;;
80344;SDS011;69658;44.498;0.166;2023-07-22T07:17:44;3.50;;;2.00;;
80344;SDS011;69658;44.498;0.166;2023-07-22T07:23:17;2.27;;;1.87;;
80344;SDS011;69658;44.498;0.166;2023-07-22T07:28:51;2.77;;;1.47;;
80344;SDS011;69658;44.498;0.166;2023-07-22T07:34:22;3.20;;;1.67;;
80344;SDS011;69658;44.498;0.166;2023-07-22T07:39:59;4.27;;;1.47;;
80344;SDS011;69658;44.498;0.166;2023-07-22T07:45:28;4.23;;;2.07;;
80344;SDS011;69658;44.498;0.166;2023-07-22T07:51:02;3.60;;;1.70;;
80344;SDS011;69658;44.498;0.166;2023-07-22T07:56:34;1.97;;;1.40;;
80344;SDS011;69658;44.498;0.166;2023-07-22T08:02:10;2.70;;;1.15;;
80344;SDS011;69658;44.498;0.166;2023-07-22T08:07:40;3.65;;;1.70;;
80344;SDS011;69658;44.498;0.166;2023-07-22T08:13:13;1.15;;;0.90;;
80344;SDS011;69658;44.498;0.166;2023-07-22T08:18:47;2.80;;;1.10;;
80344;SDS011;69658;44.498;0.166;2023-07-22T08:24:18;1.85;;;1.40;;
80344;SDS011;69658;44.498;0.166;2023-07-22T08:29:50;1.85;;;1.10;;
80344;SDS011;69658;44.498;0.166;2023-07-22T08:35:23;2.15;;;0.90;;
80344;SDS011;69658;44.498;0.166;2023-07-22T08:40:56;2.35;;;1.00;;
80344;SDS011;69658;44.498;0.166;2023-07-22T08:46:28;2.25;;;1.10;;
80344;SDS011;69658;44.498;0.166;2023-07-22T08:52:00;2.20;;;1.05;;
80344;SDS011;69658;44.498;0.166;2023-07-22T08:57:34;1.55;;;0.90;;
80344;SDS011;69658;44.498;0.166;2023-07-22T09:03:07;2.00;;;0.90;;
80344;SDS011;69658;44.498;0.166;2023-07-22T09:08:40;2.00;;;1.45;;
80344;SDS011;69658;44.498;0.166;2023-07-22T09:14:12;1.80;;;1.20;;
80344;SDS011;69658;44.498;0.166;2023-07-22T09:19:45;3.00;;;1.55;;
80344;SDS011;69658;44.498;0.166;2023-07-22T09:25:17;1.65;;;1.30;;
80344;SDS011;69658;44.498;0.166;2023-07-22T09:30:50;1.95;;;0.90;;
80344;SDS011;69658;44.498;0.166;2023-07-22T09:36:23;3.50;;;1.25;;
80344;SDS011;69658;44.498;0.166;2023-07-22T09:41:55;7.10;;;1.15;;
80344;SDS011;69658;44.498;0.166;2023-07-22T09:47:28;2.45;;;1.20;;
80344;SDS011;69658;44.498;0.166;2023-07-22T09:53:01;1.90;;;1.00;;
80344;SDS011;69658;44.498;0.166;2023-07-22T09:58:34;1.70;;;1.00;;
80344;SDS011;69658;44.498;0.166;2023-07-22T10:04:06;1.77;;;1.10;;
80344;SDS011;69658;44.498;0.166;2023-07-22T10:09:38;1.07;;;1.03;;
80344;SDS011;69658;44.498;0.166;2023-07-22T10:15:13;1.33;;;1.03;;
80344;SDS011;69658;44.498;0.166;2023-07-22T10:20:44;2.97;;;0.87;;
80344;SDS011;69658;44.498;0.166;2023-07-22T10:26:15;2.10;;;0.83;;
80344;SDS011;69658;44.498;0.166;2023-07-22T10:31:53;1.13;;;0.87;;
80344;SDS011;69658;44.498;0.166;2023-07-22T10:37:21;1.07;;;0.90;;
80344;SDS011;69658;44.498;0.166;2023-07-22T10:42:59;1.43;;;0.90;;
80344;SDS011;69658;44.498;0.166;2023-07-22T10:48:27;1.07;;;0.70;;
80344;SDS011;69658;44.498;0.166;2023-07-22T10:54:00;2.50;;;1.10;;
80344;SDS011;69658;44.498;0.166;2023-07-22T10:59:32;1.13;;;0.90;;
80344;SDS011;69658;44.498;0.166;2023-07-22T11:05:06;1.27;;;0.87;;
80344;SDS011;69658;44.498;0.166;2023-07-22T11:16:12;0.60;;;0.57;;
80344;SDS011;69658;44.498;0.166;2023-07-22T11:21:46;1.13;;;0.73;;
80344;SDS011;69658;44.498;0.166;2023-07-22T11:27:18;0.63;;;0.53;;
80344;SDS011;69658;44.498;0.166;2023-07-22T11:32:50;1.03;;;0.50;;
80344;SDS011;69658;44.498;0.166;2023-07-22T11:43:56;0.70;;;0.50;;
80344;SDS011;69658;44.498;0.166;2023-07-22T11:55:01;1.33;;;0.60;;
80344;SDS011;69658;44.498;0.166;2023-07-22T12:00:34;3.20;;;0.53;;
80344;SDS011;69658;44.498;0.166;2023-07-22T12:06:05;1.70;;;0.53;;
80344;SDS011;69658;44.498;0.166;2023-07-22T12:11:37;1.73;;;0.50;;
80344;SDS011;69658;44.498;0.166;2023-07-22T12:17:09;0.93;;;0.83;;
80344;SDS011;69658;44.498;0.166;2023-07-22T12:22:43;1.10;;;0.60;;
80344;SDS011;69658;44.498;0.166;2023-07-22T12:28:16;1.40;;;0.90;;
80344;SDS011;69658;44.498;0.166;2023-07-22T12:33:47;3.03;;;0.90;;
80344;SDS011;69658;44.498;0.166;2023-07-22T12:39:20;1.80;;;0.67;;
80344;SDS011;69658;44.498;0.166;2023-07-22T12:44:52;1.47;;;0.67;;
80344;SDS011;69658;44.498;0.166;2023-07-22T13:01:31;1.50;;;0.60;;
80344;SDS011;69658;44.498;0.166;2023-07-22T13:07:11;0.53;;;0.53;;
80344;SDS011;69658;44.498;0.166;2023-07-22T13:12:36;0.50;;;0.50;;
80344;SDS011;69658;44.498;0.166;2023-07-22T13:18:08;0.70;;;0.60;;
80344;SDS011;69658;44.498;0.166;2023-07-22T13:23:41;0.70;;;0.60;;
80344;SDS011;69658;44.498;0.166;2023-07-22T13:34:48;0.60;;;0.60;;
80344;SDS011;69658;44.498;0.166;2023-07-22T13:40:21;0.53;;;0.47;;
80344;SDS011;69658;44.498;0.166;2023-07-22T13:45:54;2.17;;;0.80;;
80344;SDS011;69658;44.498;0.166;2023-07-22T13:51:27;4.80;;;0.70;;
80344;SDS011;69658;44.498;0.166;2023-07-22T13:56:59;0.83;;;0.60;;
80344;SDS011;69658;44.498;0.166;2023-07-22T14:02:33;1.00;;;0.63;;
80344;SDS011;69658;44.498;0.166;2023-07-22T14:08:06;1.53;;;0.80;;
80344;SDS011;69658;44.498;0.166;2023-07-22T14:13:37;1.33;;;1.00;;
80344;SDS011;69658;44.498;0.166;2023-07-22T14:19:10;1.00;;;0.90;;
80344;SDS011;69658;44.498;0.166;2023-07-22T14:24:41;1.90;;;0.50;;
80344;SDS011;69658;44.498;0.166;2023-07-22T14:30:15;1.50;;;0.60;;
80344;SDS011;69658;44.498;0.166;2023-07-22T14:35:49;0.70;;;0.70;;
80344;SDS011;69658;44.498;0.166;2023-07-22T14:41:21;0.73;;;0.73;;
80344;SDS011;69658;44.498;0.166;2023-07-22T14:46:54;0.40;;;0.40;;
80344;SDS011;69658;44.498;0.166;2023-07-22T14:57:56;0.90;;;0.70;;
80344;SDS011;69658;44.498;0.166;2023-07-22T15:03:29;0.77;;;0.50;;
80344;SDS011;69658;44.498;0.166;2023-07-22T15:09:02;0.63;;;0.50;;
80344;SDS011;69658;44.498;0.166;2023-07-22T15:14:35;0.60;;;0.53;;
80344;SDS011;69658;44.498;0.166;2023-07-22T15:20:07;1.40;;;0.67;;
80344;SDS011;69658;44.498;0.166;2023-07-22T15:25:39;0.77;;;0.60;;
80344;SDS011;69658;44.498;0.166;2023-07-22T15:31:12;0.70;;;0.70;;
80344;SDS011;69658;44.498;0.166;2023-07-22T15:36:45;0.97;;;0.80;;
80344;SDS011;69658;44.498;0.166;2023-07-22T15:42:17;0.50;;;0.43;;
80344;SDS011;69658;44.498;0.166;2023-07-22T15:47:50;0.90;;;0.70;;
80344;SDS011;69658;44.498;0.166;2023-07-22T15:53:24;1.13;;;0.67;;
80344;SDS011;69658;44.498;0.166;2023-07-22T15:58:57;0.53;;;0.50;;
80344;SDS011;69658;44.498;0.166;2023-07-22T16:04:29;1.03;;;0.70;;
80344;SDS011;69658;44.498;0.166;2023-07-22T16:10:03;0.60;;;0.60;;
80344;SDS011;69658;44.498;0.166;2023-07-22T16:15:35;0.90;;;0.90;;
80344;SDS011;69658;44.498;0.166;2023-07-22T16:21:08;0.70;;;0.70;;
80344;SDS011;69658;44.498;0.166;2023-07-22T16:26:39;1.47;;;1.37;;
80344;SDS011;69658;44.498;0.166;2023-07-22T16:37:46;0.50;;;0.50;;
80344;SDS011;69658;44.498;0.166;2023-07-22T16:43:18;1.63;;;0.70;;
80344;SDS011;69658;44.498;0.166;2023-07-22T16:48:51;0.90;;;0.60;;
80344;SDS011;69658;44.498;0.166;2023-07-22T16:54:23;0.67;;;0.57;;
80344;SDS011;69658;44.498;0.166;2023-07-22T16:59:56;1.00;;;0.53;;
80344;SDS011;69658;44.498;0.166;2023-07-22T17:05:29;0.80;;;0.63;;
80344;SDS011;69658;44.498;0.166;2023-07-22T17:11:02;1.10;;;0.60;;
80344;SDS011;69658;44.498;0.166;2023-07-22T17:16:35;2.37;;;0.50;;
80344;SDS011;69658;44.498;0.166;2023-07-22T17:22:08;1.00;;;0.60;;
80344;SDS011;69658;44.498;0.166;2023-07-22T17:27:41;0.70;;;0.53;;
80344;SDS011;69658;44.498;0.166;2023-07-22T17:33:13;1.13;;;0.70;;
80344;SDS011;69658;44.498;0.166;2023-07-22T17:38:46;0.90;;;0.70;;
80344;SDS011;69658;44.498;0.166;2023-07-22T17:44:19;1.00;;;0.87;;
80344;SDS011;69658;44.498;0.166;2023-07-22T17:49:52;1.13;;;1.03;;
80344;SDS011;69658;44.498;0.166;2023-07-22T17:55:25;0.80;;;0.80;;
80344;SDS011;69658;44.498;0.166;2023-07-22T18:00:57;1.03;;;0.73;;
80344;SDS011;69658;44.498;0.166;2023-07-22T18:06:31;1.43;;;0.73;;
80344;SDS011;69658;44.498;0.166;2023-07-22T18:12:03;0.80;;;0.77;;
80344;SDS011;69658;44.498;0.166;2023-07-22T18:17:36;1.40;;;0.87;;
80344;SDS011;69658;44.498;0.166;2023-07-22T18:23:09;0.60;;;0.50;;
80344;SDS011;69658;44.498;0.166;2023-07-22T18:28:42;0.43;;;0.43;;
80344;SDS011;69658;44.498;0.166;2023-07-22T18:34:16;0.60;;;0.60;;
80344;SDS011;69658;44.498;0.166;2023-07-22T18:39:47;1.40;;;0.67;;
80344;SDS011;69658;44.498;0.166;2023-07-22T18:45:19;1.77;;;1.50;;
80344;SDS011;69658;44.498;0.166;2023-07-22T18:50:54;1.37;;;0.90;;
80344;SDS011;69658;44.498;0.166;2023-07-22T18:56:25;0.80;;;0.70;;
80344;SDS011;69658;44.498;0.166;2023-07-22T19:01:58;1.67;;;0.83;;
80344;SDS011;69658;44.498;0.166;2023-07-22T19:07:32;7.77;;;7.03;;
80344;SDS011;69658;44.498;0.166;2023-07-22T19:13:04;3.87;;;3.20;;
80344;SDS011;69658;44.498;0.166;2023-07-22T19:18:36;2.40;;;2.10;;
80344;SDS011;69658;44.498;0.166;2023-07-22T19:24:08;1.30;;;1.20;;
80344;SDS011;69658;44.498;0.166;2023-07-22T19:29:40;1.30;;;1.20;;
80344;SDS011;69658;44.498;0.166;2023-07-22T19:35:13;1.17;;;1.07;;
80344;SDS011;69658;44.498;0.166;2023-07-22T19:40:46;1.83;;;0.60;;
80344;SDS011;69658;44.498;0.166;2023-07-22T19:46:18;0.63;;;0.63;;
80344;SDS011;69658;44.498;0.166;2023-07-22T19:51:50;2.80;;;0.97;;
80344;SDS011;69658;44.498;0.166;2023-07-22T19:57:23;2.60;;;1.10;;
80344;SDS011;69658;44.498;0.166;2023-07-22T20:02:55;2.80;;;0.80;;
80344;SDS011;69658;44.498;0.166;2023-07-22T20:08:27;0.70;;;0.70;;
80344;SDS011;69658;44.498;0.166;2023-07-22T20:14:04;2.00;;;1.10;;
80344;SDS011;69658;44.498;0.166;2023-07-22T20:19:33;4.27;;;1.77;;
80344;SDS011;69658;44.498;0.166;2023-07-22T20:25:06;2.60;;;1.80;;
80344;SDS011;69658;44.498;0.166;2023-07-22T20:30:38;3.77;;;1.27;;
80344;SDS011;69658;44.498;0.166;2023-07-22T20:36:11;1.77;;;1.40;;
80344;SDS011;69658;44.498;0.166;2023-07-22T20:41:44;2.00;;;1.30;;
80344;SDS011;69658;44.498;0.166;2023-07-22T20:47:17;2.43;;;1.30;;
80344;SDS011;69658;44.498;0.166;2023-07-22T20:52:50;2.63;;;1.47;;
80344;SDS011;69658;44.498;0.166;2023-07-22T20:58:26;1.93;;;1.07;;
80344;SDS011;69658;44.498;0.166;2023-07-22T21:03:56;1.23;;;1.10;;
80344;SDS011;69658;44.498;0.166;2023-07-22T21:09:29;2.63;;;1.47;;
80344;SDS011;69658;44.498;0.166;2023-07-22T21:15:01;1.30;;;1.07;;
80344;SDS011;69658;44.498;0.166;2023-07-22T21:20:33;1.17;;;1.07;;
80344;SDS011;69658;44.498;0.166;2023-07-22T21:26:07;1.70;;;1.17;;
80344;SDS011;69658;44.498;0.166;2023-07-22T21:31:38;3.40;;;1.23;;
80344;SDS011;69658;44.498;0.166;2023-07-22T21:37:12;1.80;;;1.50;;
80344;SDS011;69658;44.498;0.166;2023-07-22T21:42:46;3.13;;;1.33;;
80344;SDS011;69658;44.498;0.166;2023-07-22T21:48:17;1.13;;;1.00;;
80344;SDS011;69658;44.498;0.166;2023-07-22T21:53:51;4.07;;;1.50;;
80344;SDS011;69658;44.498;0.166;2023-07-22T21:59:22;3.23;;;1.20;;
80344;SDS011;69658;44.498;0.166;2023-07-22T22:04:56;1.70;;;1.10;;
80344;SDS011;69658;44.498;0.166;2023-07-22T22:10:28;1.33;;;1.07;;
80344;SDS011;69658;44.498;0.166;2023-07-22T22:16:00;1.33;;;1.23;;
80344;SDS011;69658;44.498;0.166;2023-07-22T22:27:05;1.00;;;0.87;;
80344;SDS011;69658;44.498;0.166;2023-07-22T22:32:37;1.87;;;1.33;;
80344;SDS011;69658;44.498;0.166;2023-07-22T22:38:10;2.10;;;1.50;;
80344;SDS011;69658;44.498;0.166;2023-07-22T22:43:42;5.60;;;1.60;;
80344;SDS011;69658;44.498;0.166;2023-07-22T22:49:15;1.50;;;1.40;;
80344;SDS011;69658;44.498;0.166;2023-07-22T22:54:47;2.77;;;1.57;;
80344;SDS011;69658;44.498;0.166;2023-07-22T23:00:19;2.53;;;1.80;;
80344;SDS011;69658;44.498;0.166;2023-07-22T23:05:52;1.90;;;1.70;;
80344;SDS011;69658;44.498;0.166;2023-07-22T23:11:24;2.07;;;1.80;;
80344;SDS011;69658;44.498;0.166;2023-07-22T23:16:56;1.90;;;1.50;;
80344;SDS011;69658;44.498;0.166;2023-07-22T23:22:29;1.87;;;1.53;;
80344;SDS011;69658;44.498;0.166;2023-07-22T23:28:02;2.83;;;1.50;;
80344;SDS011;69658;44.498;0.166;2023-07-22T23:33:36;2.57;;;1.27;;
80344;SDS011;69658;44.498;0.166;2023-07-22T23:39:09;3.07;;;1.73;;
80344;SDS011;69658;44.498;0.166;2023-07-22T23:44:43;3.27;;;1.90;;
80344;SDS011;69658;44.498;0.166;2023-07-22T23:50:16;2.30;;;1.40;;
80344;SDS011;69658;44.498;0.166;2023-07-22T23:55:46;2.07;;;1.70;;
